• Join FlightAware (Why Join?)
  • Login
  • US Flag 
12:24PM EDT


 

Airport Tracker/Info


-or-


 

Live Flight TrackerFlight Track Log ✈ SWA3561 ✈ 28-Sep-2013 ✈ KTPA - KPVD

Flight Track Log - Related Links

Times and Time Zones

All times are in EDT time to prevent confusion due to time zone crossing. See the SWA3561 flight status page for this flight to view local times or setup timezone preferences in your user account.

Time Position Orientation Groundspeed Altitude Reporting Facility
EDT Latitude Longitude Course Direction KTS MPH feet Rate Location/Type
11:16AM 28.0000 -82.5333 360° North 164 189 900  Level Tampa TRACON
11:17AM 28.0833 -82.5333 360° North 233 268 4,900 3,120 Climbing Tampa TRACON
11:18AM 28.1500 -82.5333 360° North 240 276 8,800 2,400 Climbing Tampa TRACON
11:21AM 28.3331 -82.5531 355° North 294 338 12,800 2,100 Climbing Jacksonville Center
11:22AM 28.4333 -82.5644 354° North 332 382 15,800 2,880 Climbing Jacksonville Center
11:23AM 28.5397 -82.5758 355° North 355 409 18,700 2,880 Climbing Jacksonville Center
11:24AM 28.6461 -82.5875 355° North 375 432 21,600 2,820 Climbing Jacksonville Center
11:25AM 28.7528 -82.5989 355° North 381 438 24,300 2,160 Climbing Jacksonville Center
11:26AM 28.8675 -82.6153 353° North 391 450 26,000 1,680 Climbing Jacksonville Center
11:27AM 28.9781 -82.6314 353° North 396 456 27,700 1,800 Climbing Jacksonville Center
11:28AM 29.0931 -82.6478 353° North 407 468 29,600 2,100 Climbing Jacksonville Center
11:29AM 29.2078 -82.6617 354° North 407 468 31,900 1,200 Climbing Jacksonville Center
11:30AM 29.3206 -82.6783 353° North 407 468 32,000 1,200 Climbing Jacksonville Center
11:31AM 29.4311 -82.6803 359° North 407 468 34,300 1,980 Climbing Jacksonville Center
11:32AM 29.5419 -82.6539 12° North 402 463 36,000 1,500 Climbing Jacksonville Center
11:33AM 29.6442 -82.6203 16° North 391 450 37,400 1,380 Climbing Jacksonville Center
11:34AM 29.7464 -82.5936 13° North 386 444 38,800 780 Climbing Jacksonville Center
11:35AM 29.8464 -82.5644 14° North 381 438 39,000 60 Climbing Jacksonville Center
11:36AM 29.9508 -82.5353 14° North 376 433 39,000  Level Jacksonville Center
11:37AM 30.0550 -82.5133 10° North 376 433 39,000  Level Jacksonville Center
11:38AM 30.1572 -82.4842 14° North 376 433 39,000  Level Jacksonville Center
11:39AM 30.2617 -82.4550 14° North 376 433 39,000  Level Jacksonville Center
11:40AM 30.3658 -82.4256 14° North 376 433 39,000  Level Jacksonville Center
11:41AM 30.4661 -82.3986 13° North 371 427 39,000  Level Jacksonville Center
11:42AM 30.5703 -82.3689 14° North 371 427 39,000  Level Jacksonville Center
11:43AM 30.6703 -82.3394 14° North 371 427 39,000  Level Jacksonville Center
11:44AM 30.7600 -82.3147 13° North 371 427 39,000  Level Jacksonville Center
11:45AM 30.8622 -82.2850 14° North 371 427 39,000  Level Jacksonville Center
11:46AM 30.9622 -82.2603 12° North 371 427 39,000  Level Jacksonville Center
11:47AM 31.0644 -82.2306 14° North 371 427 39,000  Level Jacksonville Center
11:48AM 31.1644 -82.2006 14° North 371 427 39,000  Level Jacksonville Center
11:49AM 31.2647 -82.1708 14° North 371 427 39,000  Level Jacksonville Center
11:50AM 31.3667 -82.1431 13° North 371 427 39,000  Level Jacksonville Center
11:51AM 31.4689 -82.1131 14° North 371 427 39,000  Level Jacksonville Center
11:52AM 31.5689 -82.0878 12° North 371 427 39,000  Level Jacksonville Center
11:53AM 31.6794 -82.0528 15° North 371 427 39,000  Level Jacksonville Center
11:54AM 31.7711 -82.0250 14° North 371 427 39,000  Level Jacksonville Center
11:55AM 31.8814 -81.9947 13° North 371 427 39,000  Level Jacksonville Center
11:56AM 31.9711 -81.9619 17° North 371 427 39,000  Level Jacksonville Center
11:57AM 32.0664 -81.8825 35° Northeast 376 433 39,000  Level Jacksonville Center
11:58AM 32.1472 -81.7983 41° Northeast 389 448 39,000  Level Jacksonville Center
11:59AM 32.2217 -81.7261 39° Northeast 389 448 39,000  Level Jacksonville Center
12:00PM 32.3128 -81.6364 40° Northeast 389 448 39,000  Level Jacksonville Center
12:01PM 32.3953 -81.5542 40° Northeast 384 442 39,000  Level Jacksonville Center
12:02PM 32.4697 -81.4817 39° Northeast 384 442 39,000  Level Jacksonville Center
12:03PM 32.5606 -81.3892 41° Northeast 384 442 39,000  Level Jacksonville Center
12:04PM 32.6328 -81.3139 41° Northeast 384 442 39,000  Level Jacksonville Center
12:05PM 32.7150 -81.2283 41° Northeast 384 442 39,000  Level Jacksonville Center
12:06PM 32.7975 -81.1453 40° Northeast 384 442 39,000  Level Jacksonville Center
12:07PM 32.8778 -81.0622 41° Northeast 384 442 39,000  Level Jacksonville Center
12:08PM 32.9492 -80.9642 49° Northeast 384 442 39,000  Level Jacksonville Center
12:09PM 33.0122 -80.8589 54° Northeast 384 442 39,000  Level Jacksonville Center
12:10PM 33.0753 -80.7533 54° Northeast 384 442 39,000  Level Jacksonville Center
12:11PM 33.1403 -80.6500 53° Northeast 389 448 39,000  Level Jacksonville Center
12:12PM 33.2031 -80.5442 55° Northeast 389 448 39,000  Level Jacksonville Center
12:13PM 33.2678 -80.4381 54° Northeast 389 448 39,000  Level Jacksonville Center
12:14PM 33.3306 -80.3344 54° Northeast 389 448 39,000  Level Jacksonville Center
12:15PM 33.3992 -80.2181 55° Northeast 389 448 39,000  Level Jacksonville Center
12:16PM 33.4636 -80.1139 53° Northeast 389 448 39,000  Level Jacksonville Center
12:17PM 33.5431 -80.0342 40° Northeast 376 433 39,000  Level Jacksonville Center
12:18PM 33.6269 -79.9567 38° Northeast 376 433 39,000  Level Jacksonville Center
12:19PM 33.7086 -79.8817 37° Northeast 369 425 39,000  Level Jacksonville Center
12:20PM 33.7903 -79.8039 38° Northeast 369 425 39,000  Level Jacksonville Center
12:21PM 33.8739 -79.7258 38° Northeast 369 425 39,000  Level Jacksonville Center
12:22PM 33.9572 -79.6428 40° Northeast 369 425 39,000  Level Jacksonville Center
12:23PM 34.0408 -79.5669 37° Northeast 369 425 39,000  Level Jacksonville Center
12:25PM 34.2092 -79.4039 39° Northeast 365 420 39,000  Level Washington Center
12:26PM 34.2931 -79.3222 39° Northeast 371 427 39,000  Level Washington Center
12:27PM 34.3769 -79.2431 38° Northeast 376 433 39,000  Level Washington Center
12:28PM 34.4564 -79.1633 40° Northeast 376 433 39,000  Level Washington Center
12:29PM 34.5425 -79.0814 38° Northeast 382 440 39,000  Level Washington Center
12:30PM 34.6261 -78.9992 39° Northeast 382 440 39,000  Level Washington Center
12:31PM 34.7078 -78.9192 39° Northeast 382 440 39,000  Level Washington Center
12:32PM 34.7892 -78.8392 39° Northeast 382 440 39,000  Level Washington Center
12:33PM 34.8706 -78.7614 38° Northeast 382 440 39,000  Level Washington Center
12:34PM 34.9497 -78.6808 40° Northeast 382 440 39,000  Level Washington Center
12:35PM 35.0311 -78.6028 38° Northeast 382 440 39,000  Level Washington Center
12:36PM 35.1125 -78.5194 40° Northeast 382 440 39,000  Level Washington Center
12:37PM 35.1958 -78.4386 38° Northeast 382 440 39,000  Level Washington Center
12:38PM 35.2769 -78.3550 40° Northeast 382 440 39,000  Level Washington Center
12:39PM 35.3603 -78.2714 39° Northeast 387 445 39,000  Level Washington Center
12:40PM 35.4456 -78.1875 39° Northeast 387 445 39,000  Level Washington Center
12:41PM 35.5308 -78.1061 38° Northeast 387 445 39,000  Level Washington Center
12:42PM 35.6161 -78.0192 40° Northeast 387 445 39,000  Level Washington Center
12:43PM 35.7011 -77.9375 38° Northeast 387 445 39,000  Level Washington Center
12:44PM 35.7864 -77.8503 40° Northeast 387 445 39,000  Level Washington Center
12:45PM 35.8714 -77.7683 38° Northeast 387 445 39,000  Level Washington Center
12:46PM 35.9564 -77.6833 39° Northeast 387 445 39,000  Level Washington Center
12:47PM 36.0433 -77.5931 40° Northeast 387 445 39,000  Level Washington Center
12:48PM 36.1283 -77.5053 40° Northeast 387 445 39,000  Level Washington Center
12:49PM 36.2025 -77.4272 40° Northeast 389 448 39,000  Level Washington Center
12:50PM 36.2853 -77.3389 41° Northeast 384 442 39,000  Level Washington Center
12:51PM 36.3719 -77.2533 38° Northeast 389 448 39,000  Level Washington Center
12:52PM 36.4567 -77.1647 40° Northeast 389 448 39,000  Level Washington Center
12:53PM 36.5433 -77.0758 39° Northeast 389 448 39,000  Level Washington Center
12:54PM 36.6258 -76.9869 41° Northeast 389 448 39,000  Level Washington Center
12:55PM 36.7206 -76.8900 39° Northeast 389 448 39,000  Level Washington Center
12:56PM 36.8031 -76.8033 40° Northeast 389 448 39,000  Level Washington Center
12:57PM 36.8872 -76.7136 40° Northeast 389 448 39,000  Level Washington Center
12:58PM 36.9694 -76.6267 40° Northeast 383 441 39,000  Level Washington Center
12:59PM 37.0536 -76.5367 40° Northeast 383 441 39,000  Level Washington Center
01:00PM 37.1378 -76.4489 40° Northeast 383 441 39,000  Level Washington Center
01:01PM 37.2217 -76.3611 40° Northeast 383 441 39,000  Level Washington Center
01:02PM 37.3036 -76.2708 41° Northeast 383 441 39,000  Level Washington Center
01:03PM 37.3897 -76.1825 39° Northeast 383 441 39,000  Level Washington Center
01:04PM 37.4650 -76.1100 37° Northeast 383 441 39,000  Level Washington Center
01:05PM 37.5489 -76.0214 40° Northeast 383 441 39,000  Level Washington Center
01:06PM 37.6306 -75.9300 42° Northeast 383 441 39,000  Level Washington Center
01:07PM 37.7161 -75.8439 39° Northeast 383 441 39,000  Level Washington Center
01:08PM 37.7997 -75.7522 41° Northeast 383 441 39,000  Level Washington Center
01:09PM 37.8833 -75.6603 41° Northeast 388 447 39,000  Level Washington Center
01:10PM 37.9667 -75.5681 41° Northeast 388 447 39,000  Level Washington Center
01:11PM 38.0500 -75.4783 40° Northeast 388 447 39,000  Level Washington Center
01:12PM 38.1375 -75.3883 39° Northeast 383 441 39,000  Level Washington Center
01:13PM 38.2208 -75.3011 39° Northeast 388 447 39,000  Level Washington Center
01:14PM 38.3100 -75.2108 38° Northeast 395 455 39,000  Level Washington Center
01:15PM 38.3931 -75.1150 42° Northeast 395 455 39,000  Level Washington Center
01:16PM 38.4783 -75.0189 41° Northeast 400 460 39,000  Level Washington Center
01:17PM 38.5592 -74.9333 40° Northeast 395 455 39,000  Level Washington Center
01:18PM 38.6461 -74.8422 39° Northeast 402 463 39,000  Level Washington Center
01:19PM 38.7311 -74.7533 39° Northeast 396 456 39,000  Level Washington Center
01:20PM 38.8158 -74.6672 38° Northeast 396 456 39,000  Level Washington Center
01:21PM 38.9006 -74.5728 41° Northeast 396 456 39,000  Level Washington Center
01:22PM 38.9853 -74.4833 39° Northeast 396 456 39,000  Level Washington Center
01:23PM 39.0697 -74.3886 41° Northeast 401 461 39,000  Level Washington Center
01:24PM 39.1564 -74.2961 40° Northeast 401 461 39,000 -300 Level Washington Center
01:25PM 39.2428 -74.2061 39° Northeast 401 461 38,500 -780 Descending Washington Center
01:26PM 39.3250 -74.1133 41° Northeast 394 453 37,500 -480 Descending Washington Center
01:28PM 39.5447 -73.8711 40° Northeast 391 450 37,000 -180 Descending Boston Center
01:29PM 39.6294 -73.7761 41° Northeast 391 450 37,000  Level Boston Center
01:30PM 39.7139 -73.6806 41° Northeast 391 450 37,000  Level Boston Center
01:31PM 39.8022 -73.5878 39° Northeast 391 450 37,000 -60 Level Boston Center
01:32PM 39.8867 -73.4892 42° Northeast 397 457 36,900 -600 Descending Boston Center
01:33PM 39.9728 -73.4011 38° Northeast 397 457 35,900 -960 Descending Boston Center
01:34PM 40.0589 -73.3047 41° Northeast 397 457 35,000 -960 Descending Boston Center
01:35PM 40.1408 -73.2083 42° Northeast 397 457 34,000 -1,020 Descending Boston Center
01:36PM 40.2167 -73.0978 48° Northeast 397 457 33,100 -1,020 Descending Boston Center
01:37PM 40.2819 -72.9733 55° Northeast 408 470 32,100 -1,020 Descending Boston Center
01:38PM 40.3658 -72.8622 45° Northeast 415 478 31,100 -1,500 Descending Boston Center
01:39PM 40.4286 -72.7753 46° Northeast 415 478 29,100 -2,340 Descending Boston Center
01:40PM 40.5206 -72.6503 46° Northeast 409 471 26,500 -2,400 Descending Boston Center
01:41PM 40.5956 -72.5494 46° Northeast 390 449 24,400 -2,100 Descending Boston Center
01:42PM 40.6686 -72.4539 45° Northeast 380 437 22,400 -1,920 Descending Boston Center
01:43PM 40.7353 -72.3606 47° Northeast 364 419 20,500 -1,920 Descending Boston Center
01:44PM 40.7936 -72.2756 48° Northeast 351 404 18,700 -1,860 Descending Boston Center
01:45PM 40.8433 -72.2125 44° Northeast 355 409 17,500 -1,500 Descending Boston Center
01:45PM 40.8581 -72.1875 52° Northeast 341 392 17,200 -1,860 Descending Boston Center
01:46PM 40.8869 -72.1544 41° Northeast 331 381 16,200 -1,980 Descending Boston Center
01:46PM 40.9181 -72.0994 53° Northeast 336 387 15,200 -2,100 Descending Boston Center
01:47PM 40.9597 -72.0525 40° Northeast 328 377 13,900 -1,980 Descending Boston Center
01:47PM 40.9825 -72.0139 52° Northeast 326 375 13,200 -1,980 Descending Boston Center
01:48PM 41.0178 -71.9669 45° Northeast 318 366 11,900 -2,280 Descending Boston Center
01:48PM 41.0508 -71.9253 44° Northeast 315 362 11,000 -1,620 Descending Boston Center
01:49PM 41.0756 -71.8811 53° Northeast 306 352 10,300 -780 Descending Boston Center
01:50PM 41.1272 -71.8008 49° Northeast 289 333 9,900 -420 Descending Boston Center
01:51PM 41.1811 -71.7175 49° Northeast 265 305 9,500 -840 Descending Boston Center
01:52PM 41.2306 -71.6342 52° Northeast 265 305 8,200 -1,440 Descending Boston Center
01:53PM 41.2778 -71.5589 50° Northeast 257 296 6,600 -1,500 Descending Boston Center
01:54PM 41.3211 -71.4892 50° Northeast 260 299 5,200 -840 Descending Boston Center
01:55PM 41.3661 -71.4167 50° Northeast 240 276 4,900 -180 Descending Boston Center
01:56PM 41.4203 -71.4103 North 246 283 4,900 -300 Level Boston Center
01:57PM 41.4831 -71.4342 344° North 229 264 4,400 -600 Descending Boston Center
01:58PM 41.5417 -71.4639 339° North 222 255 3,700 -900 Descending Boston Center
01:59PM 41.6003 -71.4933 339° North 206 237 2,600 -1,080 Descending Boston Center
02:00PM 41.6461 -71.4928 North 158 182 1,600 -900 Descending Boston Center
02:01PM 41.6792 -71.4644 33° Northeast 126 145 800 -840 Descending Boston Center